Terminal Aerodrome Forecast
Issued by NWS Charleston, WV

Current Version | Previous Version | Text Only | Print | Product List | Glossary Off
Versions: 1 2 3 4 5 6 7 8 9 10 11 12 13 14 15 16 17 18 19 20 21 22 23 24

000
FTUS41 KRLX 231000 AAA
TAFPKB
TAF AMD
KPKB 231007Z 2310/2406 24004KT P6SM SCT040
     FM231400 26009G15KT P6SM SCT045
     FM231800 28014G23KT P6SM BKN045
     FM240000 29009KT P6SM BKN040
     FM240200 29004KT P6SM SCT040=

USA.gov is the U.S. government's official web portal to all federal, state and local government web resources and services.